createdAt,value
2022-09-30T00:00:15.561Z,23.60
2022-09-30T00:01:15.543Z,22.70
2022-09-30T00:02:15.583Z,22.40
2022-09-30T00:03:15.605Z,22.80
2022-09-30T00:04:15.521Z,22.20
2022-09-30T00:05:15.494Z,21.30
2022-09-30T00:06:15.488Z,22.00
2022-09-30T00:07:15.464Z,23.60
2022-09-30T00:08:15.904Z,23.30
2022-09-30T00:09:15.590Z,23.40
2022-09-30T00:10:15.443Z,22.60
2022-09-30T00:11:15.414Z,23.50
2022-09-30T00:12:15.402Z,23.70
2022-09-30T00:13:15.390Z,21.30
2022-09-30T00:14:15.380Z,21.90
2022-09-30T00:15:15.365Z,22.70
2022-09-30T00:16:15.427Z,22.00
2022-09-30T00:17:15.402Z,20.70
2022-09-30T00:18:15.323Z,20.40
2022-09-30T00:19:15.385Z,21.30
2022-09-30T00:20:15.313Z,20.70
2022-09-30T00:21:15.284Z,20.70
2022-09-30T00:22:15.274Z,21.30
2022-09-30T00:23:15.263Z,20.70
2022-09-30T00:24:15.253Z,20.30
2022-09-30T00:25:15.244Z,20.90
2022-09-30T00:26:15.224Z,20.70
2022-09-30T00:27:15.213Z,21.70
2022-09-30T00:28:15.193Z,21.50
2022-09-30T00:29:15.223Z,20.30
2022-09-30T00:30:15.180Z,20.50
2022-09-30T00:31:15.206Z,21.50
2022-09-30T00:32:15.133Z,20.40
2022-09-30T00:33:15.122Z,21.60
2022-09-30T00:34:15.177Z,21.20
2022-09-30T00:35:18.189Z,20.90
2022-09-30T00:36:16.113Z,20.10
2022-09-30T00:37:15.108Z,21.20
2022-09-30T00:38:15.073Z,21.40
2022-09-30T00:39:15.080Z,20.50
2022-09-30T00:40:15.044Z,20.20
2022-09-30T00:41:15.043Z,20.70
2022-09-30T00:42:15.048Z,21.80
2022-09-30T00:43:15.003Z,20.00
2022-09-30T00:44:14.984Z,20.70
2022-09-30T00:45:14.961Z,21.00
2022-09-30T00:46:14.993Z,20.70
2022-09-30T00:47:14.962Z,21.00
2022-09-30T00:48:14.946Z,20.70
2022-09-30T00:49:14.914Z,20.20
2022-09-30T00:50:14.905Z,20.90
2022-09-30T00:51:14.883Z,22.10
2022-09-30T00:52:14.893Z,20.70
2022-09-30T00:53:14.903Z,19.90
2022-09-30T00:54:14.863Z,21.00
2022-09-30T00:55:14.843Z,20.40
2022-09-30T00:56:14.821Z,20.40
2022-09-30T00:57:14.809Z,21.20
2022-09-30T00:58:14.809Z,21.30
2022-09-30T00:59:14.792Z,21.20
2022-09-30T01:00:14.821Z,21.20
2022-09-30T01:01:14.802Z,21.00
2022-09-30T01:02:14.868Z,21.00
2022-09-30T01:03:14.743Z,21.30
2022-09-30T01:04:21.776Z,20.90
2022-09-30T01:05:14.719Z,22.60
2022-09-30T01:06:14.701Z,21.40
2022-09-30T01:07:14.678Z,21.20
2022-09-30T01:08:14.670Z,21.50
2022-09-30T01:09:14.761Z,21.80
2022-09-30T01:10:14.665Z,20.50
2022-09-30T01:11:14.628Z,20.90
2022-09-30T01:12:14.618Z,21.10
2022-09-30T01:13:14.641Z,21.30
2022-09-30T01:14:14.601Z,21.40
2022-09-30T01:15:14.609Z,21.70
2022-09-30T01:16:14.683Z,20.50
2022-09-30T01:17:14.562Z,21.90
2022-09-30T01:18:14.558Z,21.30
2022-09-30T01:19:14.529Z,20.90
2022-09-30T01:20:14.540Z,21.60
2022-09-30T01:21:14.519Z,20.70
2022-09-30T01:22:14.508Z,21.40
2022-09-30T01:23:14.484Z,22.10
2022-09-30T01:24:14.466Z,20.80
2022-09-30T01:25:14.445Z,21.00
2022-09-30T01:26:14.459Z,21.90
2022-09-30T01:27:14.417Z,22.30
2022-09-30T01:28:14.417Z,22.00
2022-09-30T01:29:14.388Z,21.20
2022-09-30T01:30:14.394Z,24.20
2022-09-30T01:31:14.461Z,22.60
2022-09-30T01:32:14.487Z,22.00
2022-09-30T01:33:14.351Z,20.90
2022-09-30T01:34:14.348Z,22.10
2022-09-30T01:35:14.338Z,20.70
2022-09-30T01:36:14.320Z,21.00
2022-09-30T01:37:14.300Z,21.30
2022-09-30T01:38:14.287Z,22.80
2022-09-30T01:39:14.319Z,21.40
2022-09-30T01:40:14.269Z,22.00
2022-09-30T01:41:14.296Z,21.60
2022-09-30T01:42:14.237Z,20.50
2022-09-30T01:43:14.241Z,21.60
2022-09-30T01:44:14.225Z,21.00
2022-09-30T01:45:14.197Z,20.90
2022-09-30T01:46:14.195Z,20.80
2022-09-30T01:47:14.179Z,23.00
2022-09-30T01:48:14.184Z,21.80
2022-09-30T01:49:14.213Z,22.60
2022-09-30T01:50:14.208Z,21.60
2022-09-30T01:51:14.126Z,22.50
2022-09-30T01:52:14.119Z,22.50
2022-09-30T01:53:14.098Z,21.90
2022-09-30T01:54:14.096Z,23.40
2022-09-30T01:55:14.069Z,23.00
2022-09-30T01:56:14.085Z,22.60
2022-09-30T01:57:14.046Z,21.90
2022-09-30T01:58:14.083Z,21.40
2022-09-30T01:59:14.061Z,22.10
2022-09-30T02:00:14.079Z,21.90
2022-09-30T02:01:14.102Z,22.70
2022-09-30T02:02:14.036Z,22.00
2022-09-30T02:03:13.976Z,21.40
2022-09-30T02:04:13.956Z,21.30
2022-09-30T02:05:13.956Z,21.80
2022-09-30T02:06:13.938Z,22.20
2022-09-30T02:07:13.936Z,21.20
2022-09-30T02:08:13.924Z,22.10
2022-09-30T02:09:14.002Z,21.60
2022-09-30T02:10:13.911Z,23.00
2022-09-30T02:11:13.887Z,23.30
2022-09-30T02:12:13.878Z,22.20
2022-09-30T02:13:13.860Z,23.10
2022-09-30T02:14:13.857Z,23.00
2022-09-30T02:15:13.845Z,21.30
2022-09-30T02:16:13.884Z,21.90
2022-09-30T02:17:13.877Z,21.60
2022-09-30T02:18:13.815Z,22.20
2022-09-30T02:19:13.833Z,22.30
2022-09-30T02:20:13.779Z,22.40
2022-09-30T02:21:13.751Z,22.40
2022-09-30T02:22:13.756Z,22.20
2022-09-30T02:23:13.725Z,22.30
2022-09-30T02:24:13.725Z,21.40
2022-09-30T02:25:13.707Z,22.20
2022-09-30T02:26:13.687Z,21.90
2022-09-30T02:27:13.698Z,21.30
2022-09-30T02:28:13.667Z,21.90
2022-09-30T02:29:13.660Z,21.60
2022-09-30T02:30:13.643Z,20.90
2022-09-30T02:31:13.652Z,22.00
2022-09-30T02:32:13.688Z,24.10
2022-09-30T02:33:13.667Z,22.30
2022-09-30T02:34:13.600Z,21.80
2022-09-30T02:35:13.586Z,21.70
2022-09-30T02:36:13.582Z,23.10
2022-09-30T02:37:13.576Z,22.30
2022-09-30T02:38:13.557Z,22.80
2022-09-30T02:39:13.559Z,22.70
2022-09-30T02:40:13.524Z,23.00
2022-09-30T02:41:13.527Z,22.40
2022-09-30T02:42:13.527Z,22.00
2022-09-30T02:43:13.486Z,22.50
2022-09-30T02:44:13.490Z,22.00
2022-09-30T02:45:13.456Z,22.40
2022-09-30T02:46:13.548Z,22.50
2022-09-30T02:47:13.510Z,23.40
2022-09-30T02:48:13.416Z,21.60
2022-09-30T02:49:13.493Z,23.00
2022-09-30T02:50:13.414Z,23.40
2022-09-30T02:51:13.396Z,23.00
2022-09-30T02:52:13.374Z,22.80
2022-09-30T02:53:13.383Z,22.30
2022-09-30T02:54:13.424Z,21.90
2022-09-30T02:55:13.336Z,22.40
2022-09-30T02:56:13.349Z,21.20
2022-09-30T02:57:13.313Z,21.00
2022-09-30T02:58:13.327Z,20.90
2022-09-30T02:59:13.315Z,22.20
2022-09-30T03:00:13.345Z,22.00
2022-09-30T03:01:13.280Z,21.50
2022-09-30T03:02:13.312Z,21.50
2022-09-30T03:03:13.246Z,21.90
2022-09-30T03:04:13.225Z,21.30
2022-09-30T03:05:13.245Z,21.80
2022-09-30T03:06:13.207Z,21.60
2022-09-30T03:07:13.174Z,21.30
2022-09-30T03:08:13.174Z,21.40
2022-09-30T03:09:13.253Z,23.50
2022-09-30T03:10:13.134Z,22.00
2022-09-30T03:11:13.135Z,22.70
2022-09-30T03:12:13.143Z,23.00
2022-09-30T03:13:13.145Z,22.50
2022-09-30T03:14:13.116Z,22.10
2022-09-30T03:15:13.108Z,22.00
2022-09-30T03:16:14.058Z,22.70
2022-09-30T03:17:13.075Z,22.70
2022-09-30T03:18:13.045Z,23.90
2022-09-30T03:19:13.066Z,22.80
2022-09-30T03:20:13.036Z,22.50
2022-09-30T03:21:13.026Z,24.00
2022-09-30T03:22:13.017Z,23.50
2022-09-30T03:23:12.972Z,22.70
2022-09-30T03:24:13.016Z,22.40
2022-09-30T03:25:12.967Z,23.50
2022-09-30T03:26:12.941Z,22.20
2022-09-30T03:27:12.942Z,23.00
2022-09-30T03:28:12.913Z,22.50
2022-09-30T03:29:12.904Z,23.30
2022-09-30T03:30:12.896Z,23.50
2022-09-30T03:31:12.975Z,23.20
2022-09-30T03:32:12.875Z,23.30
2022-09-30T03:33:12.858Z,23.10
2022-09-30T03:34:12.857Z,22.70
2022-09-30T03:35:12.835Z,22.60
2022-09-30T03:36:12.816Z,23.60
2022-09-30T03:37:12.824Z,23.50
2022-09-30T03:38:12.794Z,23.40
2022-09-30T03:39:12.782Z,22.60
2022-09-30T03:40:12.764Z,23.00
2022-09-30T03:41:12.773Z,22.90
2022-09-30T03:42:12.744Z,22.70
2022-09-30T03:43:12.745Z,22.90
2022-09-30T03:44:12.713Z,22.60
2022-09-30T03:45:12.722Z,22.80
2022-09-30T03:46:12.699Z,22.60
2022-09-30T03:47:12.685Z,23.60
2022-09-30T03:48:12.690Z,22.70
2022-09-30T03:49:12.655Z,22.40
2022-09-30T03:50:12.635Z,23.30
2022-09-30T03:51:12.635Z,22.80
2022-09-30T03:52:12.614Z,22.90
2022-09-30T03:53:12.668Z,22.70
2022-09-30T03:54:12.584Z,23.80
2022-09-30T03:55:12.589Z,23.40
2022-09-30T03:56:12.561Z,23.10
2022-09-30T03:57:12.565Z,23.00
2022-09-30T03:58:12.533Z,23.10
2022-09-30T03:59:12.535Z,23.20
2022-09-30T04:00:12.540Z,23.10
2022-09-30T04:01:12.566Z,23.80
2022-09-30T04:02:12.536Z,23.70
2022-09-30T04:03:12.475Z,23.60
2022-09-30T04:04:12.505Z,23.30
2022-09-30T04:05:12.453Z,23.70
2022-09-30T04:06:12.436Z,22.80
2022-09-30T04:07:12.419Z,22.60
2022-09-30T04:08:12.404Z,22.90
2022-09-30T04:09:12.445Z,22.70
2022-09-30T04:10:12.393Z,23.70
2022-09-30T04:11:12.383Z,23.50
2022-09-30T04:12:12.365Z,22.70
2022-09-30T04:13:12.355Z,22.60
2022-09-30T04:14:12.335Z,23.10
2022-09-30T04:15:12.359Z,23.90
2022-09-30T04:16:12.417Z,23.10
2022-09-30T04:17:12.307Z,22.90
2022-09-30T04:18:12.270Z,23.10
2022-09-30T04:19:12.254Z,22.90
2022-09-30T04:20:12.261Z,21.20
2022-09-30T04:21:12.252Z,22.60
2022-09-30T04:22:12.231Z,23.60
2022-09-30T04:23:12.212Z,22.80
2022-09-30T04:24:12.201Z,23.30
2022-09-30T04:25:12.191Z,23.30
2022-09-30T04:26:12.193Z,22.80
2022-09-30T04:27:12.188Z,21.40
2022-09-30T04:28:12.159Z,22.40
2022-09-30T04:29:12.156Z,22.00
2022-09-30T04:30:12.134Z,23.00
2022-09-30T04:31:12.200Z,23.70
2022-09-30T04:32:12.128Z,24.10
2022-09-30T04:33:12.104Z,22.70
2022-09-30T04:34:12.117Z,24.40
2022-09-30T04:35:12.066Z,23.60
2022-09-30T04:36:12.041Z,22.80
2022-09-30T04:37:12.052Z,24.50
2022-09-30T04:38:12.040Z,24.10
2022-09-30T04:39:12.022Z,22.80
2022-09-30T04:40:12.004Z,23.40
2022-09-30T04:41:11.991Z,23.40
2022-09-30T04:42:11.977Z,23.00
2022-09-30T04:43:11.981Z,24.10
2022-09-30T04:44:12.014Z,23.10
2022-09-30T04:45:11.962Z,23.90
2022-09-30T04:46:11.976Z,24.40
2022-09-30T04:47:11.913Z,23.40
2022-09-30T04:48:11.948Z,23.30
2022-09-30T04:49:11.903Z,24.80
2022-09-30T04:50:11.889Z,23.10
2022-09-30T04:51:11.862Z,24.00
2022-09-30T04:52:11.852Z,22.80
2022-09-30T04:53:11.848Z,22.00
2022-09-30T04:54:11.830Z,23.00
2022-09-30T04:55:11.830Z,22.60
2022-09-30T04:56:11.813Z,23.40
2022-09-30T04:57:11.790Z,22.80
2022-09-30T04:58:11.772Z,22.50
2022-09-30T04:59:11.773Z,24.80
2022-09-30T05:00:11.818Z,26.30
2022-09-30T05:01:11.810Z,23.30
2022-09-30T05:02:11.780Z,22.60
2022-09-30T05:03:11.713Z,22.50
2022-09-30T05:04:11.736Z,23.80
2022-09-30T05:05:11.725Z,23.00
2022-09-30T05:06:11.689Z,22.40
2022-09-30T05:07:11.672Z,23.80
2022-09-30T05:08:11.640Z,25.00
2022-09-30T05:09:11.690Z,23.40
2022-09-30T05:10:11.662Z,23.30
2022-09-30T05:11:11.613Z,23.60
2022-09-30T05:12:11.700Z,22.90
2022-09-30T05:13:11.582Z,22.70
2022-09-30T05:14:11.579Z,23.50
2022-09-30T05:15:11.551Z,24.10
2022-09-30T05:16:11.574Z,23.40
2022-09-30T05:17:11.565Z,23.10
2022-09-30T05:18:11.512Z,22.80
2022-09-30T05:19:11.552Z,23.90
2022-09-30T05:20:11.500Z,22.70
2022-09-30T05:21:11.521Z,24.00
2022-09-30T05:22:11.493Z,24.00
2022-09-30T05:23:11.464Z,23.30
2022-09-30T05:24:11.453Z,21.90
2022-09-30T05:25:11.431Z,23.00
2022-09-30T05:26:12.811Z,23.00
2022-09-30T05:27:11.424Z,25.70
2022-09-30T05:28:11.421Z,22.90
2022-09-30T05:29:11.441Z,23.50
2022-09-30T05:30:11.363Z,23.80
2022-09-30T05:31:11.411Z,22.30
2022-09-30T05:32:11.339Z,24.80
2022-09-30T05:33:11.330Z,23.10
2022-09-30T05:34:11.382Z,23.30
2022-09-30T05:35:11.300Z,24.30
2022-09-30T05:36:11.292Z,23.20
2022-09-30T05:37:11.293Z,24.30
2022-09-30T05:38:11.270Z,22.30
2022-09-30T05:39:11.269Z,24.40
2022-09-30T05:40:11.271Z,22.10
2022-09-30T05:41:11.255Z,23.00
2022-09-30T05:42:14.047Z,23.70
2022-09-30T05:43:11.211Z,24.20
2022-09-30T05:44:11.200Z,24.50
2022-09-30T05:45:11.204Z,23.40
2022-09-30T05:46:11.164Z,22.40
2022-09-30T05:47:11.156Z,23.70
2022-09-30T05:48:11.151Z,23.20
2022-09-30T05:49:11.119Z,22.20
2022-09-30T05:50:11.163Z,21.80
2022-09-30T05:51:11.168Z,23.20
2022-09-30T05:52:11.090Z,23.10
2022-09-30T05:53:11.079Z,22.50
2022-09-30T05:54:11.083Z,22.70
2022-09-30T05:55:11.082Z,21.40
2022-09-30T05:56:11.044Z,22.80
2022-09-30T05:57:11.041Z,22.30
2022-09-30T05:58:11.033Z,21.40
2022-09-30T05:59:11.025Z,22.30
2022-09-30T06:00:10.993Z,22.00
2022-09-30T06:01:13.729Z,21.90
2022-09-30T06:02:11.075Z,21.60
2022-09-30T06:03:11.025Z,22.40
2022-09-30T06:04:10.938Z,22.60
2022-09-30T06:05:10.939Z,22.70
2022-09-30T06:06:10.919Z,23.30
2022-09-30T06:07:10.937Z,21.80
2022-09-30T06:08:10.939Z,22.20
2022-09-30T06:09:10.919Z,23.20
2022-09-30T06:10:10.871Z,23.40
2022-09-30T06:11:10.886Z,23.30
2022-09-30T06:12:10.868Z,22.70
2022-09-30T06:13:10.834Z,21.90
2022-09-30T06:14:10.832Z,24.40
2022-09-30T06:15:10.808Z,22.00
2022-09-30T06:16:10.873Z,22.50
2022-09-30T06:17:10.799Z,23.40
2022-09-30T06:18:14.628Z,21.00
2022-09-30T06:19:11.769Z,21.60
2022-09-30T06:20:10.743Z,22.30
2022-09-30T06:21:10.730Z,22.50
2022-09-30T06:22:10.714Z,22.30
2022-09-30T06:23:10.703Z,22.60
2022-09-30T06:24:10.689Z,21.80
2022-09-30T06:25:10.731Z,21.10
2022-09-30T06:26:10.658Z,22.20
2022-09-30T06:27:10.638Z,23.40
2022-09-30T06:28:10.650Z,21.90
2022-09-30T06:29:10.618Z,21.70
2022-09-30T06:30:10.616Z,22.00
2022-09-30T06:31:10.616Z,21.60
2022-09-30T06:32:10.602Z,22.40
2022-09-30T06:33:10.578Z,21.90
2022-09-30T06:34:10.554Z,22.10
2022-09-30T06:35:10.541Z,20.50
2022-09-30T06:36:10.530Z,21.60
2022-09-30T06:37:10.521Z,21.20
2022-09-30T06:38:10.517Z,20.40
2022-09-30T06:39:13.678Z,21.20
2022-09-30T06:40:10.482Z,22.50
2022-09-30T06:41:10.486Z,22.00
2022-09-30T06:42:10.453Z,22.60
2022-09-30T06:43:10.440Z,22.40
2022-09-30T06:44:10.444Z,24.40
2022-09-30T06:45:12.183Z,22.40
2022-09-30T06:46:16.585Z,20.70
2022-09-30T06:47:22.560Z,20.30
2022-09-30T06:48:11.396Z,20.70
2022-09-30T06:49:13.760Z,20.60
2022-09-30T06:50:19.325Z,21.10
2022-09-30T06:51:11.353Z,20.20
2022-09-30T06:52:10.333Z,20.20
2022-09-30T06:53:10.350Z,20.00
2022-09-30T06:54:10.332Z,23.00
2022-09-30T06:55:10.290Z,20.00
2022-09-30T06:56:10.301Z,20.90
2022-09-30T06:57:10.339Z,20.70
2022-09-30T06:58:10.260Z,19.40
2022-09-30T06:59:10.258Z,19.70
2022-09-30T07:00:10.240Z,19.20
2022-09-30T07:01:10.287Z,19.90
2022-09-30T07:02:10.227Z,19.20
2022-09-30T07:03:10.219Z,19.40
2022-09-30T07:04:10.177Z,20.00
2022-09-30T07:05:17.277Z,19.10
2022-09-30T07:06:10.177Z,19.30
2022-09-30T07:07:10.157Z,19.50
2022-09-30T07:08:10.127Z,19.00
2022-09-30T07:09:10.154Z,18.80
2022-09-30T07:10:10.157Z,18.80
2022-09-30T07:11:10.106Z,19.50
2022-09-30T07:12:10.076Z,20.30
2022-09-30T07:13:10.065Z,19.20
2022-09-30T07:14:10.035Z,19.10
2022-09-30T07:15:13.531Z,19.10
2022-09-30T07:16:10.135Z,18.50
2022-09-30T07:17:10.017Z,21.20
2022-09-30T07:18:10.008Z,18.70
2022-09-30T07:19:09.987Z,20.00
2022-09-30T07:20:09.966Z,20.00
2022-09-30T07:21:09.956Z,20.00
2022-09-30T07:22:09.953Z,18.40
2022-09-30T07:23:09.926Z,18.20
2022-09-30T07:24:09.921Z,18.40
2022-09-30T07:25:09.905Z,18.90
2022-09-30T07:26:09.895Z,18.40
2022-09-30T07:27:09.885Z,18.00
2022-09-30T07:28:10.674Z,18.60
2022-09-30T07:29:10.670Z,18.40
2022-09-30T07:30:16.146Z,19.10
2022-09-30T07:31:31.370Z,18.70
2022-09-30T07:32:10.843Z,18.10
2022-09-30T07:33:09.826Z,18.40
2022-09-30T07:34:09.799Z,18.10
2022-09-30T07:35:09.799Z,18.90
2022-09-30T07:36:10.080Z,18.20
2022-09-30T07:37:09.746Z,18.10
2022-09-30T07:38:09.750Z,18.50
2022-09-30T07:39:09.730Z,17.90
2022-09-30T07:40:09.708Z,17.70
2022-09-30T07:41:09.693Z,18.10
2022-09-30T07:42:09.689Z,17.70
2022-09-30T07:43:09.677Z,18.10
2022-09-30T07:44:09.667Z,17.60
2022-09-30T07:45:09.649Z,18.00
2022-09-30T07:46:09.725Z,17.60
2022-09-30T07:47:09.638Z,17.80
2022-09-30T07:48:09.697Z,17.70
2022-09-30T07:49:09.608Z,17.60
2022-09-30T07:50:09.599Z,17.90
2022-09-30T07:51:09.570Z,17.00
2022-09-30T07:52:09.559Z,16.60
2022-09-30T07:53:09.566Z,17.80
2022-09-30T07:54:09.545Z,16.60
2022-09-30T07:55:09.517Z,17.70
2022-09-30T07:56:09.517Z,16.60
2022-09-30T07:57:11.164Z,16.60
2022-09-30T07:58:09.536Z,16.60
2022-09-30T07:59:09.486Z,17.30
2022-09-30T08:00:37.461Z,16.40
2022-09-30T08:01:10.518Z,16.40
2022-09-30T08:02:09.463Z,17.20
2022-09-30T08:03:09.489Z,16.30
2022-09-30T08:04:09.408Z,16.50
2022-09-30T08:05:09.675Z,16.40
2022-09-30T08:06:09.480Z,16.70
2022-09-30T08:07:09.369Z,16.10
2022-09-30T08:08:09.348Z,16.20
2022-09-30T08:09:09.374Z,16.30
2022-09-30T08:10:09.348Z,15.80
2022-09-30T08:11:09.364Z,16.20
2022-09-30T08:12:09.315Z,16.70
2022-09-30T08:13:09.286Z,16.10
2022-09-30T08:14:09.306Z,16.70
2022-09-30T08:15:09.266Z,16.00
2022-09-30T08:16:09.296Z,16.30
2022-09-30T08:17:09.239Z,15.80
2022-09-30T08:18:09.228Z,15.80
2022-09-30T08:19:09.209Z,16.20
2022-09-30T08:20:13.079Z,15.90
2022-09-30T08:21:10.187Z,16.50
2022-09-30T08:22:09.412Z,15.90
2022-09-30T08:23:09.224Z,15.40
2022-09-30T08:24:09.149Z,15.80
2022-09-30T08:25:09.138Z,15.30
2022-09-30T08:26:09.139Z,16.30
2022-09-30T08:27:09.143Z,15.40
2022-09-30T08:28:09.099Z,15.00
2022-09-30T08:29:09.082Z,15.40
2022-09-30T08:30:09.081Z,15.50
2022-09-30T08:31:09.118Z,15.40
2022-09-30T08:32:09.115Z,15.50
2022-09-30T08:33:09.148Z,15.20
2022-09-30T08:34:09.016Z,14.70
2022-09-30T08:35:08.999Z,15.40
2022-09-30T08:36:08.999Z,14.90
2022-09-30T08:37:09.803Z,15.50
2022-09-30T08:38:08.970Z,15.30
2022-09-30T08:39:08.939Z,14.90
2022-09-30T08:40:08.951Z,14.30
2022-09-30T08:41:08.940Z,14.60
2022-09-30T08:42:25.150Z,14.60
2022-09-30T08:43:09.921Z,14.60
2022-09-30T08:44:08.899Z,14.40
2022-09-30T08:45:08.892Z,14.70
2022-09-30T08:46:09.021Z,14.30
2022-09-30T08:47:08.860Z,14.60
2022-09-30T08:48:08.884Z,14.10
2022-09-30T08:49:08.820Z,15.70
2022-09-30T08:50:08.811Z,14.40
2022-09-30T08:51:08.807Z,14.40
2022-09-30T08:52:12.725Z,14.00
2022-09-30T08:53:09.819Z,14.00
2022-09-30T08:54:08.844Z,13.90
2022-09-30T08:55:08.758Z,13.40
2022-09-30T08:56:08.741Z,13.80
2022-09-30T08:57:08.730Z,13.80
2022-09-30T08:58:08.729Z,13.40
2022-09-30T08:59:08.782Z,13.60
2022-09-30T09:00:08.691Z,14.10
2022-09-30T09:01:08.827Z,13.70
2022-09-30T09:02:08.711Z,13.60
2022-09-30T09:03:08.651Z,13.70
2022-09-30T09:04:08.641Z,13.40
2022-09-30T09:05:08.632Z,13.30
2022-09-30T09:06:08.612Z,13.40
2022-09-30T09:07:08.590Z,12.90
2022-09-30T09:08:10.251Z,12.70
2022-09-30T09:09:08.580Z,13.20
2022-09-30T09:10:08.560Z,12.70
2022-09-30T09:11:08.541Z,12.80
2022-09-30T09:12:08.572Z,12.50
2022-09-30T09:13:08.512Z,12.30
2022-09-30T09:14:08.512Z,12.60
2022-09-30T09:15:08.504Z,12.40
2022-09-30T09:16:08.532Z,12.20
2022-09-30T09:17:13.101Z,12.10
2022-09-30T09:18:23.332Z,12.70
2022-09-30T09:19:09.442Z,12.30
2022-09-30T09:20:08.431Z,12.70
2022-09-30T09:21:08.430Z,12.00
2022-09-30T09:22:08.399Z,12.10
2022-09-30T09:23:08.402Z,12.20
2022-09-30T09:24:08.374Z,12.10
2022-09-30T09:25:08.365Z,11.80
2022-09-30T09:26:08.354Z,11.50
2022-09-30T09:27:08.437Z,11.60
2022-09-30T09:28:08.391Z,11.50
2022-09-30T09:29:08.382Z,12.00
2022-09-30T09:30:08.305Z,11.90
2022-09-30T09:31:08.344Z,11.60
2022-09-30T09:32:08.304Z,11.80
2022-09-30T09:33:08.253Z,11.70
2022-09-30T09:34:08.262Z,11.80
2022-09-30T09:35:08.232Z,11.50
2022-09-30T09:36:08.237Z,11.60
2022-09-30T09:37:08.289Z,11.60
2022-09-30T09:38:08.546Z,11.30
2022-09-30T09:39:08.197Z,11.20
2022-09-30T09:40:08.172Z,10.90
2022-09-30T09:41:08.176Z,11.10
2022-09-30T09:42:08.145Z,11.40
2022-09-30T09:43:08.126Z,10.80
2022-09-30T09:44:08.124Z,11.20
2022-09-30T09:45:08.128Z,10.50
2022-09-30T09:46:08.246Z,10.70
2022-09-30T09:47:08.074Z,11.20
2022-09-30T09:48:08.073Z,11.40
2022-09-30T09:49:08.044Z,10.60
2022-09-30T09:50:08.055Z,10.40
2022-09-30T09:51:08.035Z,10.90
2022-09-30T09:52:08.016Z,10.90
2022-09-30T09:53:07.997Z,10.30
2022-09-30T09:54:09.446Z,10.50
2022-09-30T09:55:07.989Z,11.00
2022-09-30T09:56:07.987Z,10.40
2022-09-30T09:57:07.956Z,10.00
2022-09-30T09:58:07.946Z,10.30
2022-09-30T09:59:07.927Z,10.10
2022-09-30T10:00:07.923Z,10.10
2022-09-30T10:01:09.583Z,10.20
2022-09-30T10:02:07.948Z,11.00
2022-09-30T10:03:07.865Z,9.80
2022-09-30T10:04:07.886Z,10.10
2022-09-30T10:05:07.845Z,10.00
2022-09-30T10:06:07.825Z,9.70
2022-09-30T10:07:07.806Z,9.40
2022-09-30T10:08:07.808Z,10.20
2022-09-30T10:09:07.799Z,10.00
2022-09-30T10:10:07.797Z,10.00
2022-09-30T10:11:07.785Z,9.90
2022-09-30T10:12:07.802Z,10.10
2022-09-30T10:13:07.746Z,9.80
2022-09-30T10:14:07.748Z,9.70
2022-09-30T10:15:07.740Z,10.20
2022-09-30T10:16:07.718Z,9.50
2022-09-30T10:17:07.677Z,9.80
2022-09-30T10:18:07.802Z,9.70
2022-09-30T10:19:09.702Z,9.60
2022-09-30T10:20:07.689Z,9.60
2022-09-30T10:21:07.647Z,9.50
2022-09-30T10:22:07.633Z,9.40
2022-09-30T10:23:07.718Z,9.80
2022-09-30T10:24:07.620Z,9.30
2022-09-30T10:25:08.419Z,9.40
2022-09-30T10:26:07.582Z,10.00
2022-09-30T10:27:07.588Z,9.20
2022-09-30T10:28:07.641Z,9.10
2022-09-30T10:29:07.536Z,9.40
2022-09-30T10:30:07.688Z,9.20
2022-09-30T10:31:07.525Z,9.70
2022-09-30T10:32:08.407Z,9.40
2022-09-30T10:33:07.518Z,9.30
2022-09-30T10:34:07.473Z,9.20
2022-09-30T10:35:07.677Z,9.40
2022-09-30T10:36:07.471Z,9.20
2022-09-30T10:37:07.428Z,8.80
2022-09-30T10:38:07.420Z,8.30
2022-09-30T10:39:07.619Z,8.90
2022-09-30T10:40:07.435Z,8.80
2022-09-30T10:41:07.380Z,8.80
2022-09-30T10:42:07.380Z,9.10
2022-09-30T10:43:07.381Z,8.70
2022-09-30T10:44:07.343Z,8.50
2022-09-30T10:45:07.330Z,8.70
2022-09-30T10:46:25.197Z,8.50
2022-09-30T10:47:08.329Z,8.20
2022-09-30T10:48:07.282Z,8.30
2022-09-30T10:49:07.270Z,8.10
2022-09-30T10:50:07.261Z,8.00
2022-09-30T10:51:07.303Z,7.80
2022-09-30T10:52:07.232Z,8.00
2022-09-30T10:53:07.213Z,9.20
2022-09-30T10:54:07.210Z,7.70
2022-09-30T10:55:13.826Z,8.80
2022-09-30T10:56:08.222Z,8.10
2022-09-30T10:57:07.174Z,8.20
2022-09-30T10:58:07.151Z,8.30
2022-09-30T10:59:07.153Z,7.90
2022-09-30T11:00:07.123Z,8.20
2022-09-30T11:01:07.177Z,8.40
2022-09-30T11:02:07.137Z,8.50
2022-09-30T11:03:07.164Z,7.80
2022-09-30T11:04:07.104Z,8.10
2022-09-30T11:05:07.073Z,8.00
2022-09-30T11:06:07.082Z,7.90
2022-09-30T11:07:07.044Z,7.70
2022-09-30T11:08:07.066Z,7.80
2022-09-30T11:09:07.023Z,7.50
2022-09-30T11:10:07.046Z,7.40
2022-09-30T11:11:09.426Z,7.30
2022-09-30T11:12:06.972Z,7.60
2022-09-30T11:13:06.954Z,7.30
2022-09-30T11:14:06.950Z,7.20
2022-09-30T11:15:06.934Z,7.20
2022-09-30T11:16:07.011Z,7.20
2022-09-30T11:17:06.903Z,6.80
2022-09-30T11:18:06.893Z,6.40
2022-09-30T11:19:06.873Z,6.70
2022-09-30T11:20:06.884Z,6.10
2022-09-30T11:21:06.875Z,6.40
2022-09-30T11:22:06.865Z,6.20
2022-09-30T11:23:06.837Z,6.60
2022-09-30T11:24:06.827Z,6.80
2022-09-30T11:25:11.008Z,7.00
2022-09-30T11:26:06.816Z,6.50
2022-09-30T11:27:06.816Z,6.60
2022-09-30T11:28:06.844Z,6.60
2022-09-30T11:29:06.748Z,6.30
2022-09-30T11:30:06.736Z,6.80
2022-09-30T11:31:07.328Z,6.40
2022-09-30T11:32:06.789Z,6.50
2022-09-30T11:33:06.696Z,6.20
2022-09-30T11:34:06.695Z,5.90
2022-09-30T11:35:06.675Z,6.30
2022-09-30T11:36:06.660Z,6.00
2022-09-30T11:37:06.653Z,6.20
2022-09-30T11:38:06.649Z,5.80
2022-09-30T11:39:06.627Z,6.10
2022-09-30T11:40:06.608Z,5.90
2022-09-30T11:41:06.618Z,5.90
2022-09-30T11:42:06.586Z,6.10
2022-09-30T11:43:08.376Z,6.20
2022-09-30T11:44:06.557Z,6.00
2022-09-30T11:45:06.547Z,5.70
2022-09-30T11:46:06.548Z,6.00
2022-09-30T11:47:06.527Z,5.60
2022-09-30T11:48:06.498Z,5.90
2022-09-30T11:49:06.508Z,5.70
2022-09-30T11:50:06.477Z,5.80
2022-09-30T11:51:06.497Z,5.80
2022-09-30T11:52:06.460Z,6.10
2022-09-30T11:53:06.451Z,6.00
2022-09-30T11:54:06.440Z,5.60
2022-09-30T11:55:06.501Z,5.70
2022-09-30T11:56:06.409Z,5.90
2022-09-30T11:57:06.410Z,6.00
2022-09-30T11:58:28.660Z,5.60
2022-09-30T11:59:07.382Z,5.70
2022-09-30T12:00:06.358Z,5.40
2022-09-30T12:01:06.358Z,5.60
2022-09-30T12:02:06.391Z,5.60
2022-09-30T12:03:10.022Z,5.70
2022-09-30T12:04:06.319Z,5.90
2022-09-30T12:05:06.301Z,5.70
2022-09-30T12:06:06.269Z,5.90
2022-09-30T12:07:06.261Z,5.70
2022-09-30T12:08:06.258Z,6.20
2022-09-30T12:09:06.241Z,5.80
2022-09-30T12:10:06.232Z,6.20
2022-09-30T12:11:06.243Z,6.00
2022-09-30T12:12:06.220Z,5.60
2022-09-30T12:13:06.201Z,5.60
2022-09-30T12:14:06.332Z,5.70
2022-09-30T12:15:06.173Z,5.80
2022-09-30T12:16:06.214Z,6.00
2022-09-30T12:17:06.191Z,5.60
2022-09-30T12:18:06.123Z,5.80
2022-09-30T12:19:06.113Z,5.50
2022-09-30T12:20:06.091Z,5.50
2022-09-30T12:21:06.103Z,5.40
2022-09-30T12:22:06.059Z,5.40
2022-09-30T12:23:06.081Z,5.50
2022-09-30T12:24:06.044Z,5.70
2022-09-30T12:25:06.044Z,5.40
2022-09-30T12:26:06.015Z,6.10
2022-09-30T12:27:06.013Z,5.90
2022-09-30T12:28:06.075Z,5.90
2022-09-30T12:29:06.029Z,5.70
2022-09-30T12:30:06.003Z,5.60
2022-09-30T12:31:05.974Z,5.90
2022-09-30T12:32:05.979Z,5.50
2022-09-30T12:33:05.942Z,5.50
2022-09-30T12:34:05.903Z,5.00
2022-09-30T12:35:05.902Z,4.90
2022-09-30T12:36:05.894Z,4.80
2022-09-30T12:37:05.889Z,4.80
2022-09-30T12:38:05.876Z,5.20
2022-09-30T12:39:05.866Z,5.60
2022-09-30T12:40:05.844Z,4.80
2022-09-30T12:41:05.851Z,4.90
2022-09-30T12:42:05.813Z,5.40
2022-09-30T12:43:05.844Z,4.90
2022-09-30T12:44:05.785Z,4.90
2022-09-30T12:45:05.786Z,5.50
2022-09-30T12:46:05.783Z,6.20
2022-09-30T12:47:05.746Z,5.30
2022-09-30T12:48:05.768Z,5.40
2022-09-30T12:49:05.731Z,5.10
2022-09-30T12:50:05.708Z,4.90
2022-09-30T12:51:05.786Z,5.20
2022-09-30T12:52:05.687Z,5.30
2022-09-30T12:53:05.692Z,5.20
2022-09-30T12:54:05.678Z,5.60
2022-09-30T12:55:05.650Z,5.20
2022-09-30T12:56:05.625Z,5.40
2022-09-30T12:57:05.644Z,6.30
2022-09-30T12:58:05.613Z,5.50